KBV weather

Krabi Airport
Krabi, Krabi Province, Thailand

Public forecast

Using degrees Celsius for public forecast. Weather courtesy of forecast.io.

Current aviation weather report (METAR) for Krabi Airport

Retrieved 2019/12/06 05:00 UTC (28 minutes ago):

VTSG 060500Z 03010KT 360V060 9999 SCT020 30/22 Q1013 NOSIG

Aviation forecast (TAF) for Krabi Airport

Retrieved 2019-12-06 00:00 UTC (5 hours ago):

TAF VTSG 052300Z 0600/0624 06008KT 9999 FEW020 TEMPO 0602/0608 06010G25KT